Fruitland, ID

4:39 PM MST on November 16, 2019 (GMT -0700)
Ontario | | Change Station
Active Advisory: Air Stagnation Advisory

Elev 2149 ft 44.02 °N, 116.96 °W | Updated 5 seconds ago

Clear
Clear
55.4 °F
Feels Like 55.4 °F
N
0
Wind Variable Wind from West
Gusts 0.0 mph

Today
High -- | Low -- °F
--% Chance of Precip.
Yesterday
High -- | Low -- °F
Precip. -- in
Pressure 30.33 in
Visibility 10.0 miles
Clouds Clear
Dew Point 33 °F
Humidity 42%
Rainfall 0.00 in
Snow Depth Not available.
7:43 AM 5:20 PM
Waning Gibbous, 80% visible
METAR KONO 162253Z AUTO 25004KT 10SM CLR 15/M01 A3032 RMK AO2 SLP270 T01501006
Pressure 30.33 in
Visibility 10.0 miles
Clouds Clear
Dew Point 33 °F
Humidity 42%
Rainfall 0.00 in
Snow Depth Not available.
7:43 AM 5:20 PM
Waning Gibbous, 80% visible
METAR KONO 162253Z AUTO 25004KT 10SM CLR 15/M01 A3032 RMK AO2 SLP270 T01501006

Get Your Daily Forecast Email!

Thanks for signing up!

Be on the lookout for a verification email in your inbox.

You'll start receiving severe weather alerts in your inbox..

×

10-Day Weather Forecast

Almanac

Astronomy

Nov. 16, 2019 Rise Set
Actual Time
Civil Twilight
Nautical Twilight
Astronomical Twilight
Moon
Length of Visible Light
Length of Day
Tomorrow will be .
, % of the Moon is Illuminated

Today's Extremes

State Highs State Lows

Community

WunderPhotos

Category 6

Welcome to Category 6. This is the collective home for Weather Underground's featured writeups by Dr. Jeff Masters (right), Bob Henson (left), Chris Burt, and other regular contributors.

Nearby

Air Quality

  Air Quality AQ Index Pollutant
Not available.

Snow Depth

Station Depth Elevation

Earthquake Activity

City Distance Mag. Time & Date
Minimum magnitude displayed is 2.5.

Coastal Water Temperatures

Place Temperature

Stations

Nearby Weather Stations

Station Location Temp. Windchill Dew Point Humidity Wind Precip. Elev Updated Type
                   

Watches & Warnings

Air Stagnation Advisory
Issued: 12:49 PM PST Nov. 16, 2019 – National Weather Service

... Air stagnation advisory remains in effect from 5 PM MST /4 PM
PST/ this afternoon to 11 am MST /10 am PST/ Monday...

* what... an extended period of stagnant air, with light winds
and little vertical mixing.

* Where... most valley areas of northeast and southeast Oregon and
south central, southwest and west central Idaho.

* When... from 5 PM MST /4 PM PST/ this afternoon to 11 am MST
/10 am PST/ Monday.

* Impacts... periods of air stagnation can lead to the buildup of
pollutants near the surface.

Precautionary/preparedness actions...

If possible, reduce or eliminate activities that contribute to
air pollution, such as outdoor burning, and the use of
residential wood burning devices. Reduce vehicle trips and
vehicle idling as much as possible. Check with local agencies
for possible restrictions in your area.